Time;durP1;ratioP1;P1;durP2;ratioP2;P2;SDS_P1;SDS_P2;PMS_P1;PMS_P2;Temp;Humidity;BMP_temperature;BMP_pressure;BME280_temperature;BME280_humidity;BME280_pressure;Samples;Min_cycle;Max_cycle;Signal;HPM_P1;HPM_P2
2022/11/09 00:00:21;;;;;;;2.73;1.63;;;;;;;;;;5074604;28;20454;-66
2022/11/09 00:02:49;;;;;;;2.07;1.87;;;;;;;;;;5073746;28;21093;-66
2022/11/09 00:05:16;;;;;;;2.73;1.90;;;;;;;;;;5074180;28;20893;-66
2022/11/09 00:07:43;;;;;;;2.80;2.20;;;;;;;;;;5073545;28;20962;-66
2022/11/09 00:10:11;;;;;;;3.13;1.60;;;;;;;;;;5073111;28;20450;-67
2022/11/09 00:12:38;;;;;;;3.07;2.20;;;;;;;;;;5073449;28;20531;-67
2022/11/09 00:15:05;;;;;;;2.40;1.80;;;;;;;;;;5075031;28;20483;-67
2022/11/09 00:17:32;;;;;;;1.83;1.67;;;;;;;;;;5073342;28;20448;-67
2022/11/09 00:20:01;;;;;;;3.73;1.80;;;;;;;;;;5073117;28;20448;-67
2022/11/09 00:22:28;;;;;;;2.50;2.03;;;;;;;;;;5074131;28;20443;-67
2022/11/09 00:24:55;;;;;;;3.13;2.10;;;;;;;;;;5073346;28;20446;-67
2022/11/09 00:27:22;;;;;;;2.40;1.63;;;;;;;;;;5077172;28;20453;-67
2022/11/09 00:29:49;;;;;;;1.97;1.70;;;;;;;;;;5077524;28;20439;-67
2022/11/09 00:32:16;;;;;;;4.53;1.57;;;;;;;;;;5077289;28;20439;-67
2022/11/09 00:34:43;;;;;;;5.37;1.70;;;;;;;;;;5077585;28;20482;-67
2022/11/09 00:37:11;;;;;;;2.20;1.70;;;;;;;;;;5077098;28;20447;-67
2022/11/09 00:39:38;;;;;;;3.30;1.97;;;;;;;;;;5077424;28;20447;-67
2022/11/09 00:42:06;;;;;;;2.33;1.70;;;;;;;;;;5077473;28;20451;-67
2022/11/09 00:44:33;;;;;;;2.33;1.70;;;;;;;;;;5077352;28;20498;-66
2022/11/09 00:47:00;;;;;;;2.80;2.00;;;;;;;;;;5077103;28;20450;-66
2022/11/09 00:49:27;;;;;;;3.83;1.90;;;;;;;;;;5077054;28;20443;-67
2022/11/09 00:51:54;;;;;;;1.73;1.40;;;;;;;;;;5077127;28;20446;-67
2022/11/09 00:54:22;;;;;;;2.60;1.97;;;;;;;;;;5076421;28;20480;-67
2022/11/09 00:56:49;;;;;;;1.87;1.60;;;;;;;;;;5076738;28;20810;-67
2022/11/09 00:59:17;;;;;;;2.60;1.67;;;;;;;;;;5076433;28;20448;-65
2022/11/09 01:01:44;;;;;;;2.50;1.50;;;;;;;;;;5076229;28;20469;-66
2022/11/09 01:04:11;;;;;;;2.50;1.43;;;;;;;;;;5076261;28;20546;-66
2022/11/09 01:06:38;;;;;;;3.10;1.53;;;;;;;;;;5075884;28;20453;-67
2022/11/09 01:09:05;;;;;;;2.43;1.63;;;;;;;;;;5076213;28;20438;-66
2022/11/09 01:11:33;;;;;;;1.97;1.77;;;;;;;;;;5076288;28;20442;-67
2022/11/09 01:14:01;;;;;;;2.10;1.60;;;;;;;;;;5075840;28;20467;-67
2022/11/09 01:16:28;;;;;;;2.47;2.07;;;;;;;;;;5076039;28;20474;-67
2022/11/09 01:18:55;;;;;;;3.30;1.57;;;;;;;;;;5076590;28;20865;-67
2022/11/09 01:21:23;;;;;;;3.20;1.70;;;;;;;;;;5076254;28;20455;-67
2022/11/09 01:23:50;;;;;;;2.03;1.60;;;;;;;;;;5075919;28;20483;-67
2022/11/09 01:26:17;;;;;;;2.43;1.60;;;;;;;;;;5076268;28;20446;-67
2022/11/09 01:28:45;;;;;;;2.23;1.53;;;;;;;;;;5076332;28;20541;-66
2022/11/09 01:31:13;;;;;;;1.90;1.30;;;;;;;;;;5076639;28;20454;-66
2022/11/09 01:33:41;;;;;;;1.70;1.43;;;;;;;;;;5076417;28;20467;-67
2022/11/09 01:36:09;;;;;;;1.90;1.80;;;;;;;;;;5076047;28;20481;-67
2022/11/09 01:38:36;;;;;;;2.07;1.57;;;;;;;;;;5075407;28;20456;-68
2022/11/09 01:41:04;;;;;;;2.50;1.50;;;;;;;;;;5075715;28;20447;-66
2022/11/09 01:43:31;;;;;;;1.67;1.27;;;;;;;;;;5075606;28;20968;-67
2022/11/09 01:46:02;;;;;;;2.30;1.40;;;;;;;;;;5075640;28;20440;-67
2022/11/09 01:48:33;;;;;;;1.40;1.20;;;;;;;;;;5075338;28;20521;-67
2022/11/09 01:51:03;;;;;;;2.90;1.23;;;;;;;;;;5075698;28;20469;-66
2022/11/09 01:53:31;;;;;;;1.90;1.23;;;;;;;;;;5075563;28;20474;-67
2022/11/09 01:56:01;;;;;;;2.70;1.77;;;;;;;;;;5075605;28;20486;-67
2022/11/09 01:58:31;;;;;;;2.43;1.17;;;;;;;;;;5076493;28;20442;-67
2022/11/09 02:01:00;;;;;;;2.23;1.77;;;;;;;;;;5076034;28;20454;-67
2022/11/09 02:03:29;;;;;;;2.87;1.57;;;;;;;;;;5075515;28;20474;-67
2022/11/09 02:05:57;;;;;;;1.40;1.20;;;;;;;;;;5075756;28;20800;-67
2022/11/09 02:08:25;;;;;;;1.63;1.53;;;;;;;;;;5075513;28;20443;-67
2022/11/09 02:10:55;;;;;;;1.90;1.70;;;;;;;;;;5075440;28;20455;-66
2022/11/09 02:13:25;;;;;;;4.00;1.80;;;;;;;;;;5075706;28;20477;-66
2022/11/09 02:15:52;;;;;;;2.33;1.50;;;;;;;;;;5075641;28;20474;-67
2022/11/09 02:18:20;;;;;;;1.80;1.63;;;;;;;;;;5075133;28;20446;-66
2022/11/09 02:20:50;;;;;;;1.57;1.20;;;;;;;;;;5074975;28;20940;-66
2022/11/09 02:23:17;;;;;;;2.13;1.37;;;;;;;;;;5074768;28;20480;-67
2022/11/09 02:25:47;;;;;;;3.13;1.60;;;;;;;;;;5074610;28;20961;-67
2022/11/09 02:28:14;;;;;;;2.77;1.80;;;;;;;;;;5075008;28;20450;-66
2022/11/09 02:30:42;;;;;;;2.60;2.30;;;;;;;;;;5074662;28;20943;-66
2022/11/09 02:33:09;;;;;;;2.30;1.40;;;;;;;;;;5074698;28;20558;-66
2022/11/09 02:35:36;;;;;;;2.70;1.80;;;;;;;;;;5074584;28;20483;-67
2022/11/09 02:38:06;;;;;;;2.10;1.80;;;;;;;;;;5074587;28;20444;-66
2022/11/09 02:40:37;;;;;;;2.20;1.43;;;;;;;;;;5075216;28;20453;-66
2022/11/09 02:43:04;;;;;;;3.27;1.87;;;;;;;;;;5074891;28;20499;-66
2022/11/09 02:45:31;;;;;;;3.50;1.93;;;;;;;;;;5074817;28;20465;-66
2022/11/09 02:47:58;;;;;;;5.13;1.60;;;;;;;;;;5074966;28;20447;-67
2022/11/09 02:50:25;;;;;;;2.17;1.60;;;;;;;;;;5073455;28;20449;-67
2022/11/09 02:52:53;;;;;;;1.50;1.40;;;;;;;;;;5074282;28;20511;-66
2022/11/09 02:55:21;;;;;;;3.40;1.40;;;;;;;;;;5074041;28;20830;-67
2022/11/09 02:57:48;;;;;;;2.20;1.50;;;;;;;;;;5074114;28;20448;-68
2022/11/09 03:00:15;;;;;;;2.27;1.87;;;;;;;;;;5074284;28;20983;-66
2022/11/09 03:02:42;;;;;;;8.07;2.00;;;;;;;;;;5074231;28;20955;-66
2022/11/09 03:05:10;;;;;;;1.97;1.60;;;;;;;;;;5074103;28;20450;-66
2022/11/09 03:07:37;;;;;;;1.70;1.60;;;;;;;;;;5074005;28;20470;-66
2022/11/09 03:10:04;;;;;;;1.90;1.60;;;;;;;;;;5075247;28;20448;-67
2022/11/09 03:12:32;;;;;;;2.27;1.80;;;;;;;;;;5074688;28;20440;-66
2022/11/09 03:15:00;;;;;;;2.00;1.40;;;;;;;;;;5074634;28;20476;-66
2022/11/09 03:17:27;;;;;;;3.47;2.00;;;;;;;;;;5075125;28;20548;-66
2022/11/09 03:19:54;;;;;;;1.80;1.63;;;;;;;;;;5075439;28;20439;-66
2022/11/09 03:22:21;;;;;;;2.70;1.67;;;;;;;;;;5074937;28;20450;-66
2022/11/09 03:24:49;;;;;;;2.40;1.90;;;;;;;;;;5074797;28;20586;-66
2022/11/09 03:27:16;;;;;;;3.93;1.67;;;;;;;;;;5075301;28;20455;-66
2022/11/09 03:29:44;;;;;;;3.60;1.70;;;;;;;;;;5075188;28;20446;-66
2022/11/09 03:32:11;;;;;;;2.33;1.30;;;;;;;;;;5075196;28;20448;-66
2022/11/09 03:34:38;;;;;;;3.20;2.00;;;;;;;;;;5074891;28;20482;-66
2022/11/09 03:37:06;;;;;;;3.00;1.40;;;;;;;;;;5074519;28;20454;-67
2022/11/09 03:39:33;;;;;;;2.70;1.97;;;;;;;;;;5075110;28;20565;-65
2022/11/09 03:42:00;;;;;;;4.20;1.90;;;;;;;;;;5075001;28;20448;-66
2022/11/09 03:44:27;;;;;;;3.03;1.33;;;;;;;;;;5074204;28;20493;-66
2022/11/09 03:46:55;;;;;;;1.67;1.53;;;;;;;;;;5074442;28;20450;-66
2022/11/09 03:49:23;;;;;;;2.50;1.40;;;;;;;;;;5074404;28;20447;-66
2022/11/09 03:51:51;;;;;;;6.10;1.90;;;;;;;;;;5074183;28;20998;-66
2022/11/09 03:54:18;;;;;;;2.47;1.37;;;;;;;;;;5074032;28;20462;-66
2022/11/09 03:56:45;;;;;;;2.17;1.30;;;;;;;;;;5073937;28;20479;-66
2022/11/09 03:59:12;;;;;;;1.97;1.77;;;;;;;;;;5074025;28;20447;-64
2022/11/09 04:01:39;;;;;;;2.10;1.50;;;;;;;;;;5073679;28;20449;-66
2022/11/09 04:04:08;;;;;;;1.50;1.30;;;;;;;;;;5074463;28;20465;-67
2022/11/09 04:06:35;;;;;;;1.53;1.43;;;;;;;;;;5074565;28;20450;-67
2022/11/09 04:10:34;;;;;;;1.70;1.37;;;;;;;;;;5096503;28;20608;-67
2022/11/09 04:13:01;;;;;;;2.20;1.90;;;;;;;;;;5093313;28;20496;-67
2022/11/09 04:15:28;;;;;;;3.20;1.67;;;;;;;;;;5094962;28;20439;-67
2022/11/09 04:17:56;;;;;;;2.13;1.63;;;;;;;;;;5094298;28;20446;-68
2022/11/09 04:20:23;;;;;;;1.57;1.30;;;;;;;;;;5091109;28;20441;-67
2022/11/09 04:22:54;;;;;;;1.70;1.60;;;;;;;;;;5112111;22;20491;-66
2022/11/09 04:25:21;;;;;;;2.17;1.60;;;;;;;;;;5071039;28;20988;-67
2022/11/09 04:27:54;;;;;;;2.10;1.90;;;;;;;;;;5072306;28;20447;-66
2022/11/09 04:30:21;;;;;;;1.57;1.10;;;;;;;;;;5072352;28;20474;-66
2022/11/09 04:32:48;;;;;;;1.67;1.30;;;;;;;;;;5073727;28;20470;-67
2022/11/09 04:35:15;;;;;;;1.70;1.43;;;;;;;;;;5073764;28;20457;-67
2022/11/09 04:37:42;;;;;;;4.40;1.83;;;;;;;;;;5072891;28;20451;-65
2022/11/09 04:40:10;;;;;;;1.90;1.40;;;;;;;;;;5072019;28;20436;-68
2022/11/09 04:42:37;;;;;;;2.50;1.87;;;;;;;;;;5072384;28;20474;-66
2022/11/09 04:45:06;;;;;;;2.23;1.47;;;;;;;;;;5072475;28;20452;-66
2022/11/09 04:47:33;;;;;;;3.47;1.63;;;;;;;;;;5070628;28;20448;-67
2022/11/09 04:50:00;;;;;;;1.73;1.63;;;;;;;;;;5070311;28;20478;-66
2022/11/09 04:52:27;;;;;;;2.27;1.70;;;;;;;;;;5070568;28;20453;-67
2022/11/09 04:54:54;;;;;;;3.60;1.60;;;;;;;;;;5069801;28;20478;-66
2022/11/09 04:57:21;;;;;;;2.80;1.50;;;;;;;;;;5069846;28;20447;-66
2022/11/09 04:59:48;;;;;;;1.80;1.50;;;;;;;;;;5069668;28;20450;-66
2022/11/09 05:02:17;;;;;;;2.10;1.53;;;;;;;;;;5069559;28;20443;-66
2022/11/09 05:04:44;;;;;;;2.23;1.50;;;;;;;;;;5069205;28;21015;-65
2022/11/09 05:07:11;;;;;;;1.50;1.27;;;;;;;;;;5069833;28;20452;-66
2022/11/09 05:09:38;;;;;;;1.37;1.13;;;;;;;;;;5070035;28;21006;-65
2022/11/09 05:12:06;;;;;;;2.63;1.40;;;;;;;;;;5070104;28;20454;-66
2022/11/09 05:14:33;;;;;;;2.20;2.00;;;;;;;;;;5069493;28;20474;-66
2022/11/09 05:17:00;;;;;;;1.90;1.57;;;;;;;;;;5070178;28;20450;-67
2022/11/09 05:19:28;;;;;;;2.60;1.60;;;;;;;;;;5069092;28;20455;-66
2022/11/09 05:21:55;;;;;;;1.93;1.40;;;;;;;;;;5055619;28;20458;-67
2022/11/09 05:24:21;;;;;;;1.83;1.50;;;;;;;;;;5055464;28;20991;-67
2022/11/09 05:26:49;;;;;;;1.77;1.60;;;;;;;;;;5056189;28;20812;-67
2022/11/09 05:29:16;;;;;;;5.33;1.37;;;;;;;;;;5056027;28;20505;-66
2022/11/09 05:31:44;;;;;;;2.20;1.80;;;;;;;;;;5055485;28;20490;-66
2022/11/09 05:34:13;;;;;;;1.60;1.43;;;;;;;;;;5056000;28;20479;-66
2022/11/09 05:36:42;;;;;;;3.47;1.40;;;;;;;;;;5055751;28;20454;-67
2022/11/09 05:39:09;;;;;;;1.93;1.17;;;;;;;;;;5055499;28;20441;-67
2022/11/09 05:41:36;;;;;;;2.40;1.37;;;;;;;;;;5055736;28;20451;-66
2022/11/09 05:44:03;;;;;;;2.27;2.00;;;;;;;;;;5055405;28;20479;-66
2022/11/09 05:46:32;;;;;;;1.70;1.20;;;;;;;;;;5056230;28;20955;-67
2022/11/09 05:48:59;;;;;;;1.83;1.73;;;;;;;;;;5055685;28;20937;-67
2022/11/09 05:51:26;;;;;;;2.77;1.70;;;;;;;;;;5055749;28;20456;-67
2022/11/09 05:53:54;;;;;;;1.97;1.60;;;;;;;;;;5055704;28;20468;-65
2022/11/09 05:56:22;;;;;;;1.50;1.40;;;;;;;;;;5055261;28;20952;-66
2022/11/09 05:58:49;;;;;;;2.23;1.63;;;;;;;;;;5055261;28;20501;-65
2022/11/09 06:01:17;;;;;;;3.93;1.40;;;;;;;;;;5055295;28;20446;-66
2022/11/09 06:03:44;;;;;;;2.07;1.60;;;;;;;;;;5054969;28;20469;-66
2022/11/09 06:06:12;;;;;;;2.07;1.70;;;;;;;;;;5055103;28;20539;-65
2022/11/09 06:08:39;;;;;;;2.83;1.63;;;;;;;;;;5055673;28;20443;-65
2022/11/09 06:11:10;;;;;;;2.07;1.50;;;;;;;;;;5055644;28;20443;-66
2022/11/09 06:13:37;;;;;;;3.40;1.70;;;;;;;;;;5056000;28;20467;-65
2022/11/09 06:16:05;;;;;;;1.90;1.50;;;;;;;;;;5056017;28;20818;-66
2022/11/09 06:18:33;;;;;;;3.00;1.77;;;;;;;;;;5056509;28;20459;-65
2022/11/09 06:21:01;;;;;;;3.17;1.70;;;;;;;;;;5055956;28;20450;-66
2022/11/09 06:23:29;;;;;;;3.60;1.90;;;;;;;;;;5054603;28;20986;-65
2022/11/09 06:25:58;;;;;;;2.40;1.70;;;;;;;;;;5055870;28;20451;-67
2022/11/09 06:28:26;;;;;;;3.07;1.90;;;;;;;;;;5055045;28;20917;-66
2022/11/09 06:30:54;;;;;;;2.20;2.00;;;;;;;;;;5054603;28;20476;-66
2022/11/09 06:33:21;;;;;;;2.13;1.70;;;;;;;;;;5053794;28;20475;-66
2022/11/09 06:35:48;;;;;;;2.97;2.07;;;;;;;;;;5054777;28;20518;-68
2022/11/09 06:38:15;;;;;;;1.87;1.67;;;;;;;;;;5054907;28;20981;-67
2022/11/09 06:40:42;;;;;;;1.93;1.73;;;;;;;;;;5055128;28;20498;-68
2022/11/09 06:43:10;;;;;;;5.93;2.07;;;;;;;;;;5055420;28;20468;-67
2022/11/09 06:45:38;;;;;;;1.83;1.60;;;;;;;;;;5055710;28;20504;-67
2022/11/09 06:48:06;;;;;;;4.10;2.10;;;;;;;;;;5054729;28;20449;-67
2022/11/09 06:50:33;;;;;;;3.23;1.60;;;;;;;;;;5055040;28;20585;-67
2022/11/09 06:53:01;;;;;;;3.03;1.70;;;;;;;;;;5054862;28;20471;-67
2022/11/09 06:55:29;;;;;;;3.10;1.57;;;;;;;;;;5054412;28;20501;-68
2022/11/09 06:57:57;;;;;;;3.77;2.03;;;;;;;;;;5054454;28;20811;-66
2022/11/09 07:00:24;;;;;;;3.70;1.97;;;;;;;;;;5054203;28;20784;-68
2022/11/09 07:02:53;;;;;;;2.70;1.90;;;;;;;;;;5054172;28;20581;-68
2022/11/09 07:05:20;;;;;;;4.93;2.30;;;;;;;;;;5056944;28;20447;-63
2022/11/09 07:07:48;;;;;;;2.83;1.90;;;;;;;;;;5054275;28;20444;-63
2022/11/09 07:10:15;;;;;;;2.90;1.70;;;;;;;;;;5053907;28;20838;-63
2022/11/09 07:12:42;;;;;;;2.37;2.17;;;;;;;;;;5054043;28;20483;-63
2022/11/09 07:15:10;;;;;;;2.30;1.80;;;;;;;;;;5053233;28;20964;-64
2022/11/09 07:17:39;;;;;;;1.80;1.70;;;;;;;;;;5054131;28;20505;-64
2022/11/09 07:20:08;;;;;;;3.60;1.70;;;;;;;;;;5053897;28;20534;-62
2022/11/09 07:22:38;;;;;;;2.90;2.13;;;;;;;;;;5053572;28;20449;-64
2022/11/09 07:25:08;;;;;;;3.00;2.03;;;;;;;;;;5053481;28;20444;-65
2022/11/09 07:27:36;;;;;;;4.50;2.33;;;;;;;;;;5053648;28;20461;-64
2022/11/09 07:30:03;;;;;;;4.63;2.10;;;;;;;;;;5052932;28;20484;-65
2022/11/09 07:32:33;;;;;;;2.67;1.90;;;;;;;;;;5052946;28;20444;-64
2022/11/09 07:35:00;;;;;;;2.07;1.87;;;;;;;;;;5053359;28;20454;-63
2022/11/09 07:37:28;;;;;;;3.40;2.40;;;;;;;;;;5053074;28;20451;-62
2022/11/09 07:39:55;;;;;;;4.23;2.00;;;;;;;;;;5052938;28;20447;-64
2022/11/09 07:42:22;;;;;;;5.30;1.97;;;;;;;;;;5052993;28;20451;-64
2022/11/09 07:44:50;;;;;;;3.43;1.97;;;;;;;;;;5052638;28;20454;-64
2022/11/09 07:47:17;;;;;;;4.20;2.30;;;;;;;;;;5052680;28;20472;-64
2022/11/09 07:49:44;;;;;;;9.07;2.90;;;;;;;;;;5052309;28;20483;-63
2022/11/09 07:52:11;;;;;;;4.57;2.00;;;;;;;;;;5053074;28;20542;-62
2022/11/09 07:54:40;;;;;;;2.03;1.73;;;;;;;;;;5053091;28;20500;-63
2022/11/09 07:57:07;;;;;;;1.93;1.60;;;;;;;;;;5052742;28;20988;-63
2022/11/09 07:59:34;;;;;;;3.40;2.07;;;;;;;;;;5052912;28;20444;-62
2022/11/09 08:02:01;;;;;;;2.20;1.77;;;;;;;;;;5053276;28;20459;-64
2022/11/09 08:04:28;;;;;;;2.17;1.97;;;;;;;;;;5053065;28;20465;-64
2022/11/09 08:06:56;;;;;;;1.53;1.43;;;;;;;;;;5053565;28;20459;-66
2022/11/09 08:09:23;;;;;;;2.10;1.67;;;;;;;;;;5052814;28;20451;-67
2022/11/09 08:11:51;;;;;;;3.27;2.07;;;;;;;;;;5052744;28;20451;-67
2022/11/09 08:14:18;;;;;;;3.43;2.03;;;;;;;;;;5052549;28;20478;-67
2022/11/09 08:16:45;;;;;;;3.47;1.90;;;;;;;;;;5052491;28;20960;-66
2022/11/09 08:19:13;;;;;;;2.10;1.80;;;;;;;;;;5052711;28;20455;-67
2022/11/09 08:21:40;;;;;;;2.67;2.03;;;;;;;;;;5052673;28;20472;-67
2022/11/09 08:24:07;;;;;;;2.73;2.10;;;;;;;;;;5052381;28;20479;-67
2022/11/09 08:26:34;;;;;;;1.87;1.77;;;;;;;;;;5052721;28;20460;-67
2022/11/09 08:29:03;;;;;;;4.00;2.33;;;;;;;;;;5053160;28;20440;-66
2022/11/09 08:31:30;;;;;;;2.20;1.37;;;;;;;;;;5052556;28;20481;-68
2022/11/09 08:33:57;;;;;;;3.87;1.53;;;;;;;;;;5052561;28;20475;-67
2022/11/09 08:36:25;;;;;;;5.00;1.97;;;;;;;;;;5052489;28;20953;-67
2022/11/09 08:38:52;;;;;;;3.80;2.33;;;;;;;;;;5052608;28;20545;-67
2022/11/09 08:41:19;;;;;;;3.43;2.00;;;;;;;;;;5052595;28;20471;-66
2022/11/09 08:43:46;;;;;;;4.33;1.60;;;;;;;;;;5052109;28;20469;-68
2022/11/09 08:46:14;;;;;;;4.70;1.90;;;;;;;;;;5052571;28;20458;-66
2022/11/09 08:48:42;;;;;;;3.90;1.87;;;;;;;;;;5057520;28;20470;-64
2022/11/09 08:51:09;;;;;;;1.83;1.40;;;;;;;;;;5052339;28;20547;-62
2022/11/09 08:53:36;;;;;;;5.60;1.90;;;;;;;;;;5054398;28;20475;-66
2022/11/09 08:56:05;;;;;;;2.90;1.90;;;;;;;;;;5054856;28;20459;-66
2022/11/09 08:58:32;;;;;;;2.87;1.90;;;;;;;;;;5056626;28;20453;-67
2022/11/09 09:01:00;;;;;;;2.33;2.13;;;;;;;;;;5056678;28;20444;-68
2022/11/09 09:03:28;;;;;;;3.43;1.80;;;;;;;;;;5056073;28;20482;-68
2022/11/09 09:05:55;;;;;;;4.97;2.03;;;;;;;;;;5056195;28;20446;-67
2022/11/09 09:08:24;;;;;;;2.40;1.53;;;;;;;;;;5055892;28;20799;-66
2022/11/09 09:10:51;;;;;;;2.13;1.60;;;;;;;;;;5055353;28;21003;-67
2022/11/09 09:13:21;;;;;;;3.20;1.50;;;;;;;;;;5055926;28;20491;-67
2022/11/09 09:15:48;;;;;;;1.73;1.63;;;;;;;;;;5055535;28;20516;-68
2022/11/09 09:18:15;;;;;;;2.67;1.60;;;;;;;;;;5055936;28;20451;-67
2022/11/09 09:20:43;;;;;;;2.83;1.40;;;;;;;;;;5055963;28;20462;-67
2022/11/09 09:23:13;;;;;;;2.20;1.43;;;;;;;;;;5055854;28;20472;-67
2022/11/09 09:25:40;;;;;;;2.30;1.17;;;;;;;;;;5055840;28;20448;-68
2022/11/09 09:28:07;;;;;;;3.50;1.57;;;;;;;;;;5055312;28;20908;-66
2022/11/09 09:30:34;;;;;;;2.70;1.40;;;;;;;;;;5056044;28;20484;-68
2022/11/09 09:33:01;;;;;;;1.60;1.50;;;;;;;;;;5055694;28;20473;-66
2022/11/09 09:35:28;;;;;;;2.17;1.70;;;;;;;;;;5055279;28;20957;-68
2022/11/09 09:37:57;;;;;;;4.17;1.53;;;;;;;;;;5055198;28;20452;-66
2022/11/09 09:40:25;;;;;;;1.90;1.40;;;;;;;;;;5055484;28;20948;-67
2022/11/09 09:42:53;;;;;;;2.53;1.93;;;;;;;;;;5055314;28;20471;-67
2022/11/09 09:45:23;;;;;;;5.13;1.37;;;;;;;;;;5056382;28;20452;-67
2022/11/09 09:47:52;;;;;;;4.27;1.77;;;;;;;;;;5056880;28;20452;-67
2022/11/09 09:50:22;;;;;;;2.70;1.47;;;;;;;;;;5055764;28;21039;-67
2022/11/09 09:52:52;;;;;;;3.40;1.40;;;;;;;;;;5055495;28;20465;-66
2022/11/09 09:55:23;;;;;;;2.17;1.60;;;;;;;;;;5055405;28;20426;-67
2022/11/09 09:57:53;;;;;;;1.40;1.27;;;;;;;;;;5055788;28;20441;-67
2022/11/09 10:00:23;;;;;;;4.00;1.30;;;;;;;;;;5056298;28;20527;-67
2022/11/09 10:02:50;;;;;;;2.57;1.37;;;;;;;;;;5055626;28;20472;-67
2022/11/09 10:05:18;;;;;;;2.60;1.50;;;;;;;;;;5056031;28;20449;-67
2022/11/09 10:07:48;;;;;;;2.60;1.30;;;;;;;;;;5055936;28;20452;-67
2022/11/09 10:10:22;;;;;;;1.00;0.77;;;;;;;;;;5055728;28;20475;-67
2022/11/09 10:13:09;;;;;;;2.53;1.37;;;;;;;;;;5056242;28;20990;-68
2022/11/09 10:15:39;;;;;;;8.87;1.60;;;;;;;;;;5058817;28;20444;-64
2022/11/09 10:18:15;;;;;;;2.07;1.07;;;;;;;;;;5060088;28;20857;-64
2022/11/09 10:20:48;;;;;;;4.20;1.30;;;;;;;;;;5059675;28;20430;-62
2022/11/09 10:23:22;;;;;;;4.50;1.40;;;;;;;;;;5081813;22;20462;-66
2022/11/09 10:25:54;;;;;;;3.20;1.50;;;;;;;;;;5075167;28;20438;-68
2022/11/09 10:28:25;;;;;;;6.57;2.30;;;;;;;;;;5075373;28;20435;-67
2022/11/09 10:30:52;;;;;;;3.30;1.50;;;;;;;;;;5075184;28;20464;-66
2022/11/09 10:33:20;;;;;;;1.97;1.17;;;;;;;;;;5074878;28;20520;-66
2022/11/09 10:35:50;;;;;;;2.83;1.10;;;;;;;;;;5074981;28;20939;-68
2022/11/09 10:38:21;;;;;;;2.90;1.00;;;;;;;;;;5075024;28;20451;-66
2022/11/09 10:40:52;;;;;;;2.43;1.00;;;;;;;;;;5075419;28;20425;-66
2022/11/09 10:43:19;;;;;;;3.57;1.70;;;;;;;;;;5074140;28;21003;-66
2022/11/09 10:45:57;;;;;;;6.27;1.70;;;;;;;;;;5074904;28;20447;-67
2022/11/09 10:48:31;;;;;;;2.63;1.40;;;;;;;;;;5074577;28;20440;-67
2022/11/09 10:50:58;;;;;;;4.00;1.30;;;;;;;;;;5074695;28;20471;-67
2022/11/09 10:53:26;;;;;;;6.83;1.53;;;;;;;;;;5073937;28;21024;-67
2022/11/09 10:55:54;;;;;;;3.43;1.40;;;;;;;;;;5074565;28;21000;-67
2022/11/09 10:58:26;;;;;;;6.20;1.33;;;;;;;;;;5074432;28;20498;-65
2022/11/09 11:01:11;;;;;;;3.60;1.50;;;;;;;;;;5074595;28;20424;-65
2022/11/09 11:03:40;;;;;;;2.30;1.03;;;;;;;;;;5074144;28;20464;-66
2022/11/09 11:06:08;;;;;;;4.30;1.57;;;;;;;;;;5074784;28;20437;-66
2022/11/09 11:08:39;;;;;;;4.27;1.67;;;;;;;;;;5074274;28;20795;-67
2022/11/09 11:11:20;;;;;;;2.20;1.23;;;;;;;;;;5076641;28;20476;-66
2022/11/09 11:13:48;;;;;;;3.37;1.63;;;;;;;;;;5077103;28;21000;-67
2022/11/09 11:16:26;;;;;;;6.10;2.47;;;;;;;;;;5076706;28;20932;-66
2022/11/09 11:18:54;;;;;;;2.70;1.00;;;;;;;;;;5075484;28;20433;-66
2022/11/09 11:21:22;;;;;;;3.33;1.60;;;;;;;;;;5074243;28;20522;-67
2022/11/09 11:24:04;;;;;;;4.77;1.37;;;;;;;;;;5073600;28;20987;-67
2022/11/09 11:26:35;;;;;;;3.00;1.10;;;;;;;;;;5074235;28;20443;-66
2022/11/09 11:29:05;;;;;;;5.73;1.60;;;;;;;;;;5074458;28;20433;-67
2022/11/09 11:31:33;;;;;;;2.63;1.20;;;;;;;;;;5073946;28;20479;-66
2022/11/09 11:34:02;;;;;;;2.20;1.20;;;;;;;;;;5073805;28;20476;-66
2022/11/09 11:36:34;;;;;;;3.13;1.30;;;;;;;;;;5073732;28;20866;-66
2022/11/09 11:39:06;;;;;;;8.63;1.50;;;;;;;;;;5073291;28;20421;-67
2022/11/09 11:41:43;;;;;;;3.80;1.80;;;;;;;;;;5073909;28;20430;-66
2022/11/09 11:44:18;;;;;;;3.87;1.43;;;;;;;;;;5073265;28;20971;-67
2022/11/09 11:46:47;;;;;;;3.73;1.53;;;;;;;;;;5073323;28;20436;-68
2022/11/09 11:49:31;;;;;;;2.90;1.50;;;;;;;;;;5073391;28;20944;-68
2022/11/09 11:52:01;;;;;;;3.47;1.87;;;;;;;;;;5073781;28;20461;-68
2022/11/09 11:54:34;;;;;;;4.83;1.40;;;;;;;;;;5074261;28;20470;-67
2022/11/09 11:57:08;;;;;;;3.07;1.17;;;;;;;;;;5074292;28;20925;-67
2022/11/09 11:59:52;;;;;;;2.80;1.20;;;;;;;;;;5074850;28;20442;-66
2022/11/09 12:02:43;;;;;;;5.87;1.60;;;;;;;;;;5075289;28;20429;-66
2022/11/09 12:05:25;;;;;;;3.07;1.30;;;;;;;;;;5076775;28;20468;-68
2022/11/09 12:07:57;;;;;;;4.77;1.80;;;;;;;;;;5076039;28;20440;-67
2022/11/09 12:10:30;;;;;;;3.63;1.47;;;;;;;;;;5075379;28;20471;-67
2022/11/09 12:13:02;;;;;;;6.27;1.77;;;;;;;;;;5075625;28;20901;-67
2022/11/09 12:15:37;;;;;;;2.70;1.60;;;;;;;;;;5075562;28;20536;-68
2022/11/09 12:18:10;;;;;;;2.30;1.90;;;;;;;;;;5075471;28;20428;-68
2022/11/09 12:20:42;;;;;;;3.60;1.27;;;;;;;;;;5075951;28;20487;-68
2022/11/09 12:23:18;;;;;;;3.23;2.03;;;;;;;;;;5076702;28;20434;-67
2022/11/09 12:25:50;;;;;;;3.70;1.63;;;;;;;;;;5074845;28;20433;-67
2022/11/09 12:28:35;;;;;;;3.80;1.50;;;;;;;;;;5074566;28;20429;-66
2022/11/09 12:31:10;;;;;;;4.03;1.50;;;;;;;;;;5075862;28;20487;-67
2022/11/09 12:33:42;;;;;;;2.87;1.77;;;;;;;;;;5078906;28;20467;-67
2022/11/09 12:36:14;;;;;;;4.53;1.37;;;;;;;;;;5079267;28;20429;-68
2022/11/09 12:38:48;;;;;;;2.20;1.60;;;;;;;;;;5079335;28;20429;-67
2022/11/09 12:41:16;;;;;;;2.13;1.63;;;;;;;;;;5079070;28;20432;-66
2022/11/09 12:43:46;;;;;;;2.77;1.70;;;;;;;;;;5078459;28;20465;-67
2022/11/09 12:46:14;;;;;;;2.63;1.70;;;;;;;;;;5077968;28;20444;-67
2022/11/09 12:48:41;;;;;;;3.80;1.40;;;;;;;;;;5078864;28;20451;-66
2022/11/09 12:51:09;;;;;;;6.60;1.60;;;;;;;;;;5078837;28;20488;-67
2022/11/09 12:53:38;;;;;;;3.30;1.10;;;;;;;;;;5078424;28;20484;-67
2022/11/09 12:56:07;;;;;;;2.13;1.20;;;;;;;;;;5078000;28;20464;-67
2022/11/09 12:58:35;;;;;;;3.00;1.20;;;;;;;;;;5077384;28;20455;-68
2022/11/09 13:01:02;;;;;;;2.50;1.30;;;;;;;;;;5079019;28;20442;-67
2022/11/09 13:03:31;;;;;;;4.27;1.30;;;;;;;;;;5078925;28;20817;-67
2022/11/09 13:06:13;;;;;;;1.90;1.20;;;;;;;;;;5079197;28;20564;-67
2022/11/09 13:08:43;;;;;;;2.27;1.20;;;;;;;;;;5074400;28;20826;-67
2022/11/09 13:11:18;;;;;;;4.93;1.00;;;;;;;;;;5077461;28;20574;-66
2022/11/09 13:13:45;;;;;;;2.93;1.00;;;;;;;;;;5077474;28;20470;-67
2022/11/09 13:16:31;;;;;;;1.30;0.70;;;;;;;;;;5078873;28;20442;-66
2022/11/09 13:18:58;;;;;;;1.60;1.40;;;;;;;;;;5079025;28;20807;-67
2022/11/09 13:21:34;;;;;;;1.80;1.00;;;;;;;;;;5080366;28;20477;-67
2022/11/09 13:24:23;;;;;;;1.77;1.20;;;;;;;;;;5080007;28;20930;-66
2022/11/09 13:26:56;;;;;;;2.90;1.00;;;;;;;;;;5077063;28;20540;-68
2022/11/09 13:29:25;;;;;;;2.00;1.10;;;;;;;;;;5080097;28;20992;-67
2022/11/09 13:32:22;;;;;;;3.93;1.10;;;;;;;;;;5079020;28;20535;-66
2022/11/09 13:34:50;;;;;;;2.30;1.03;;;;;;;;;;4996744;28;20471;-67
2022/11/09 13:37:36;;;;;;;1.80;0.90;;;;;;;;;;5059844;28;20449;-67
2022/11/09 13:40:25;;;;;;;2.70;1.00;;;;;;;;;;5078565;28;20445;-68
2022/11/09 13:42:57;;;;;;;2.67;1.10;;;;;;;;;;5077223;28;20523;-68
2022/11/09 13:45:29;;;;;;;3.57;1.20;;;;;;;;;;5078369;28;20428;-66
2022/11/09 13:47:56;;;;;;;4.47;1.77;;;;;;;;;;5078084;28;20451;-67
2022/11/09 13:50:24;;;;;;;3.37;1.30;;;;;;;;;;5077864;28;20437;-68
2022/11/09 13:52:52;;;;;;;4.37;1.33;;;;;;;;;;5078095;28;20484;-68
2022/11/09 13:55:26;;;;;;;5.20;1.53;;;;;;;;;;5078009;28;21063;-67
2022/11/09 13:57:55;;;;;;;3.37;1.10;;;;;;;;;;5078230;28;20834;-64
2022/11/09 14:00:23;;;;;;;2.67;1.00;;;;;;;;;;5077258;28;20818;-68
2022/11/09 14:02:59;;;;;;;1.37;1.00;;;;;;;;;;5076884;28;20437;-64
2022/11/09 14:05:27;;;;;;;1.83;0.93;;;;;;;;;;5077816;28;20428;-68
2022/11/09 14:07:55;;;;;;;3.80;1.47;;;;;;;;;;5077095;28;20949;-67
2022/11/09 14:10:29;;;;;;;3.90;1.90;;;;;;;;;;5077379;28;20517;-68
2022/11/09 14:13:06;;;;;;;3.40;1.30;;;;;;;;;;5077124;28;20467;-68
2022/11/09 14:15:40;;;;;;;5.57;1.20;;;;;;;;;;5077397;28;20522;-66
2022/11/09 14:18:13;;;;;;;0.90;0.60;;;;;;;;;;5077200;28;20913;-67
2022/11/09 14:20:42;;;;;;;3.10;1.10;;;;;;;;;;5078288;28;20873;-67
2022/11/09 14:23:16;;;;;;;2.47;1.47;;;;;;;;;;5078020;28;20453;-67
2022/11/09 14:25:45;;;;;;;3.87;1.03;;;;;;;;;;5078207;28;20440;-67
2022/11/09 14:28:20;;;;;;;1.70;1.30;;;;;;;;;;5079436;28;20935;-67
2022/11/09 14:30:47;;;;;;;1.27;0.97;;;;;;;;;;5078328;28;20437;-67
2022/11/09 14:33:25;;;;;;;2.97;1.67;;;;;;;;;;5077056;28;20483;-66
2022/11/09 14:35:53;;;;;;;2.60;1.23;;;;;;;;;;5077989;28;20913;-67
2022/11/09 14:38:22;;;;;;;2.20;1.07;;;;;;;;;;5079041;28;20456;-68
2022/11/09 14:40:52;;;;;;;5.03;1.50;;;;;;;;;;5079235;28;20557;-68
2022/11/09 14:43:28;;;;;;;2.80;1.33;;;;;;;;;;5079774;28;20469;-68
2022/11/09 14:45:56;;;;;;;3.83;1.53;;;;;;;;;;5078964;28;20435;-67
2022/11/09 14:48:23;;;;;;;2.23;1.10;;;;;;;;;;5077281;28;20448;-69
2022/11/09 14:50:52;;;;;;;1.80;1.50;;;;;;;;;;5078222;28;20448;-66
2022/11/09 14:53:21;;;;;;;4.83;1.70;;;;;;;;;;5076204;28;20975;-67
2022/11/09 14:55:50;;;;;;;3.07;1.50;;;;;;;;;;5075835;28;20448;-69